Time;durP1;ratioP1;P1;durP2;ratioP2;P2;SDS_P1;SDS_P2;PMS_P1;PMS_P2;Temp;Humidity;BMP_temperature;BMP_pressure;BME280_temperature;BME280_humidity;BME280_pressure;Samples;Min_cycle;Max_cycle;Signal;HPM_P1;HPM_P2
2022/11/24 05:11:29;;;;;;;119.05;40.90;;;;;;;2.42;100.00;99422.69;5553135;32;324858;-88
2022/11/24 05:14:32;;;;;;;128.75;43.63;;;;;;;2.39;100.00;99435.88;5542336;32;32265;-88
2022/11/24 05:17:37;;;;;;;114.03;40.30;;;;;;;2.38;100.00;99431.53;5543672;32;34136;-88
2022/11/24 05:20:40;;;;;;;112.85;41.95;;;;;;;2.40;100.00;99433.22;5545025;32;34258;-88
2022/11/24 05:23:43;;;;;;;116.12;39.85;;;;;;;2.48;100.00;99429.50;5543761;32;33874;-88
2022/11/24 05:26:46;;;;;;;105.10;39.80;;;;;;;2.46;100.00;99439.16;5544949;32;33734;-86
2022/11/24 05:29:48;;;;;;;96.35;37.42;;;;;;;2.52;100.00;99441.59;5546164;32;34135;-86
2022/11/24 05:32:51;;;;;;;97.12;38.55;;;;;;;2.60;100.00;99443.94;5544378;32;34731;-86
2022/11/24 05:35:54;;;;;;;91.72;36.70;;;;;;;2.63;100.00;99447.34;5544838;32;34598;-86
2022/11/24 05:38:57;;;;;;;94.65;36.60;;;;;;;2.62;100.00;99448.22;5545556;32;34771;-86
2022/11/24 05:42:39;;;;;;;92.93;37.60;;;;;;;2.67;100.00;99453.34;5548716;32;32548;-86
2022/11/24 05:45:27;;;;;;;93.87;36.90;;;;;;;2.76;100.00;99453.03;5550290;32;35299;-86
2022/11/24 05:48:30;;;;;;;100.28;38.15;;;;;;;2.70;100.00;99461.09;5545735;32;33935;-87
2022/11/24 05:51:33;;;;;;;92.85;36.03;;;;;;;2.69;100.00;99470.72;5544561;32;34284;-86
2022/11/24 05:54:35;;;;;;;81.40;33.63;;;;;;;2.71;100.00;99470.66;5544753;32;34071;-86
2022/11/24 05:57:38;;;;;;;83.68;32.88;;;;;;;2.74;100.00;99473.19;5545638;32;34027;-86
2022/11/24 06:00:41;;;;;;;78.62;32.25;;;;;;;2.80;100.00;99466.87;5547839;32;33886;-86
2022/11/24 06:03:43;;;;;;;76.50;33.17;;;;;;;2.93;100.00;99465.56;5551736;32;34983;-86
2022/11/24 06:06:46;;;;;;;81.07;33.10;;;;;;;2.93;100.00;99472.59;5544113;32;33368;-87
2022/11/24 06:09:49;;;;;;;83.28;34.00;;;;;;;2.89;100.00;99479.69;5544434;32;33898;-86
2022/11/24 06:12:52;;;;;;;76.07;32.33;;;;;;;2.96;100.00;99469.84;5542931;32;34239;-86
2022/11/24 06:16:00;;;;;;;76.07;31.35;;;;;;;3.03;100.00;99475.75;5537123;32;34335;-86
2022/11/24 06:19:02;;;;;;;73.12;30.35;;;;;;;3.00;100.00;99494.19;5534033;32;34034;-85
2022/11/24 06:22:05;;;;;;;68.93;29.67;;;;;;;3.11;100.00;99497.31;5536729;32;33603;-86
2022/11/24 06:25:08;;;;;;;67.45;30.02;;;;;;;3.04;100.00;99499.31;5539380;32;35213;-88
2022/11/24 06:28:11;;;;;;;67.15;28.45;;;;;;;3.17;100.00;99498.91;5533077;32;33878;-86
2022/11/24 06:31:14;;;;;;;69.57;28.70;;;;;;;3.15;100.00;99496.31;5530790;32;32801;-87
2022/11/24 06:34:17;;;;;;;75.55;30.45;;;;;;;3.15;100.00;99505.94;5532645;32;33759;-86
2022/11/24 06:37:19;;;;;;;71.35;30.15;;;;;;;3.17;100.00;99509.38;5534133;32;34131;-88
2022/11/24 06:40:23;;;;;;;66.53;29.85;;;;;;;3.27;100.00;99507.31;5554871;32;35327;-90
2022/11/24 06:43:27;;;;;;;65.65;30.02;;;;;;;3.28;100.00;99512.50;5545376;32;34004;-87
2022/11/24 06:46:30;;;;;;;65.07;28.52;;;;;;;3.30;100.00;99518.53;5545217;32;33801;-86
2022/11/24 06:49:33;;;;;;;61.45;27.05;;;;;;;3.40;100.00;99520.84;5537895;32;34012;-87
2022/11/24 06:52:35;;;;;;;63.70;28.48;;;;;;;3.40;100.00;99520.84;5549567;32;33942;-86
2022/11/24 06:55:39;;;;;;;60.92;26.92;;;;;;;3.31;100.00;99520.25;5550872;32;33002;-86
2022/11/24 06:58:45;;;;;;;68.87;27.17;;;;;;;3.39;100.00;99529.63;5533261;32;34580;-85
2022/11/24 07:01:47;;;;;;;63.05;27.05;;;;;;;3.39;100.00;99537.47;5531390;32;32886;-87
2022/11/24 07:04:50;;;;;;;62.92;27.20;;;;;;;3.40;100.00;99537.44;5521264;32;33839;-89
2022/11/24 07:07:53;;;;;;;60.03;26.35;;;;;;;3.42;100.00;99547.88;5524884;32;33052;-90
2022/11/24 07:11:10;;;;;;;62.42;27.60;;;;;;;3.40;100.00;99552.28;5536850;32;34195;-90
2022/11/24 07:14:12;;;;;;;59.00;27.05;;;;;;;3.41;100.00;99554.88;5539116;32;35256;-89
2022/11/24 07:17:15;;;;;;;65.15;29.73;;;;;;;3.39;100.00;99555.84;5528580;32;32327;-91
2022/11/24 07:20:18;;;;;;;68.45;27.62;;;;;;;3.39;100.00;99561.06;5543621;32;33967;-90
2022/11/24 07:26:51;;;;;;;67.65;28.58;;;;;;;3.40;100.00;99568.91;3709978;29;20072;-88
2022/11/24 07:29:54;;;;;;;56.78;26.85;;;;;;;3.50;100.00;99565.06;5550455;32;32753;-86
2022/11/24 07:33:01;;;;;;;72.05;28.27;;;;;;;3.54;100.00;99564.97;5542075;32;34308;-87
2022/11/24 07:36:06;;;;;;;66.00;26.08;;;;;;;3.55;100.00;99577.16;5551696;32;33965;-88
2022/11/24 07:39:08;;;;;;;60.85;26.77;;;;;;;3.55;100.00;99582.41;5551077;32;32425;-88
2022/11/24 07:42:12;;;;;;;61.05;25.90;;;;;;;3.69;100.00;99585.44;5562438;32;34630;-88
2022/11/24 07:45:14;;;;;;;62.92;25.98;;;;;;;3.73;100.00;99583.56;5547874;32;33422;-89
2022/11/24 07:48:17;;;;;;;62.35;27.55;;;;;;;3.87;100.00;99586.56;5548906;32;33641;-89
2022/11/24 07:51:20;;;;;;;61.83;25.98;;;;;;;3.80;100.00;99585.06;5550297;32;33633;-88
2022/11/24 07:54:22;;;;;;;68.47;27.10;;;;;;;3.88;100.00;99582.19;5550140;32;34862;-89
2022/11/24 07:57:25;;;;;;;65.97;27.40;;;;;;;3.87;100.00;99586.56;5544266;32;34045;-88
2022/11/24 08:00:28;;;;;;;59.78;26.12;;;;;;;3.91;100.00;99587.31;5545427;32;33328;-88
2022/11/24 08:03:30;;;;;;;55.10;24.85;;;;;;;3.92;100.00;99583.75;5553934;32;33598;-89
2022/11/24 08:10:12;;;;;;;64.22;27.87;;;;;;;3.89;100.00;99586.50;5293723;29;20116;-91
2022/11/24 08:13:15;;;;;;;61.78;26.25;;;;;;;3.92;100.00;99591.63;5525995;32;33551;-89
2022/11/24 08:16:18;;;;;;;65.47;27.67;;;;;;;3.85;100.00;99604.13;5523439;32;32912;-90
2022/11/24 08:19:21;;;;;;;63.30;27.67;;;;;;;3.83;100.00;99598.06;5549788;26;34107;-89
2022/11/24 08:22:24;;;;;;;71.28;28.10;;;;;;;3.89;100.00;99604.87;5536594;32;31325;-87
2022/11/24 08:25:31;;;;;;;63.05;26.95;;;;;;;3.91;100.00;99609.16;5529557;32;32653;-86
2022/11/24 08:28:34;;;;;;;59.08;27.73;;;;;;;3.91;100.00;99609.16;5532075;32;33090;-86
2022/11/24 08:31:38;;;;;;;65.07;28.70;;;;;;;4.03;100.00;99609.66;5533747;32;33805;-86
2022/11/24 08:34:40;;;;;;;64.82;27.70;;;;;;;4.00;100.00;99601.88;5550588;32;35109;-89
2022/11/24 08:37:43;;;;;;;73.12;29.20;;;;;;;3.98;100.00;99607.16;5558075;32;36471;-88
2022/11/24 08:40:49;;;;;;;65.20;28.17;;;;;;;4.02;100.00;99608.78;5546425;32;34354;-89
2022/11/24 08:43:55;;;;;;;61.37;28.02;;;;;;;4.12;100.00;99618.97;5546227;32;35179;-89
2022/11/24 08:54:31;;;;;;;70.37;28.70;;;;;;;4.47;100.00;99624.72;4955384;29;20121;-90
2022/11/24 08:57:34;;;;;;;64.72;27.25;;;;;;;4.34;100.00;99628.69;5635476;26;34936;-89
2022/11/24 09:00:37;;;;;;;68.87;29.85;;;;;;;4.18;100.00;99643.22;5579345;31;34205;-89
2022/11/24 09:03:42;;;;;;;60.78;26.95;;;;;;;4.22;100.00;99641.34;5588157;31;34643;-90
2022/11/24 09:06:53;;;;;;;65.70;28.05;;;;;;;4.35;100.00;99646.16;5592725;31;34456;-93
2022/11/24 09:09:56;;;;;;;67.32;28.25;;;;;;;4.57;100.00;99647.12;5581508;31;34088;-93
2022/11/24 09:12:58;;;;;;;66.95;28.30;;;;;;;4.39;100.00;99645.16;5575239;31;34235;-93
2022/11/24 09:16:10;;;;;;;71.25;29.67;;;;;;;4.34;100.00;99649.72;5588966;31;34308;-89
2022/11/24 09:19:12;;;;;;;66.53;28.12;;;;;;;4.35;100.00;99651.41;5575268;31;34160;-89
2022/11/24 09:22:18;;;;;;;65.53;28.42;;;;;;;4.30;100.00;99654.22;5573659;31;33022;-87
2022/11/24 09:25:22;;;;;;;65.93;27.60;;;;;;;4.53;100.00;99652.53;5576883;31;34083;-87
2022/11/24 09:28:25;;;;;;;62.17;26.80;;;;;;;4.57;100.00;99657.63;5572928;31;34091;-86
2022/11/24 09:31:30;;;;;;;62.97;25.75;;;;;;;4.79;100.00;99654.22;5587432;31;33945;-87
2022/11/24 09:34:33;;;;;;;62.75;26.60;;;;;;;5.05;100.00;99652.38;5583820;31;33880;-87
2022/11/24 09:37:36;;;;;;;64.05;26.33;;;;;;;5.15;100.00;99657.25;5589875;26;33974;-89
2022/11/24 09:40:39;;;;;;;61.47;27.10;;;;;;;5.30;100.00;99653.16;5568638;31;33746;-87
2022/11/24 09:43:45;;;;;;;56.60;25.58;;;;;;;5.48;100.00;99649.81;5559867;31;33889;-86
2022/11/24 09:46:58;;;;;;;59.47;25.65;;;;;;;5.66;100.00;99640.31;5552427;32;33503;-86
2022/11/24 09:50:03;;;;;;;59.20;26.00;;;;;;;5.75;100.00;99643.47;5560393;32;34151;-89
2022/11/24 09:53:21;;;;;;;53.45;25.00;;;;;;;5.82;100.00;99644.94;5560998;31;35337;-86
2022/11/24 09:56:27;;;;;;;51.70;24.63;;;;;;;5.96;100.00;99654.03;5563674;32;33839;-85
2022/11/24 09:59:30;;;;;;;54.58;25.52;;;;;;;5.53;100.00;99645.22;5568575;31;33989;-86
2022/11/24 10:02:33;;;;;;;58.50;27.40;;;;;;;5.64;100.00;99651.81;5548359;32;32387;-88
2022/11/24 10:05:36;;;;;;;54.95;24.70;;;;;;;5.30;100.00;99656.66;5561663;32;34622;-86
2022/11/24 10:08:44;;;;;;;61.97;27.37;;;;;;;5.49;100.00;99666.47;5553350;32;32726;-89
2022/11/24 10:12:04;;;;;;;60.05;27.52;;;;;;;5.37;100.00;99668.66;5543594;32;32373;-90
2022/11/24 10:22:58;;;;;;;52.83;24.37;;;;;;;5.43;100.00;99667.53;5509461;32;32412;-87
2022/11/24 10:26:12;;;;;;;58.20;25.67;;;;;;;4.93;100.00;99668.59;5498090;32;34349;-88
2022/11/24 10:29:38;;;;;;;56.58;25.33;;;;;;;4.88;100.00;99673.16;5492879;32;34208;-89
2022/11/24 10:32:48;;;;;;;55.92;25.12;;;;;;;4.86;100.00;99667.97;5493836;32;36214;-87
2022/11/24 10:36:06;;;;;;;55.33;25.88;;;;;;;4.77;100.00;99669.16;5487462;32;34011;-89
2022/11/24 10:39:32;;;;;;;58.97;26.62;;;;;;;4.79;100.00;99669.97;5507719;32;33194;-88
2022/11/24 10:42:36;;;;;;;53.70;25.52;;;;;;;4.81;100.00;99668.16;5519435;32;34933;-92
2022/11/24 10:45:39;;;;;;;55.80;23.60;;;;;;;4.89;100.00;99670.50;5488245;32;33314;-92
2022/11/24 10:48:48;;;;;;;55.80;24.87;;;;;;;5.10;100.00;99681.09;5513301;32;34345;-88
2022/11/24 10:51:53;;;;;;;53.85;24.35;;;;;;;5.25;100.00;99682.28;5504618;32;34311;-88
2022/11/24 10:55:01;;;;;;;56.40;24.35;;;;;;;5.10;100.00;99681.09;5490908;32;32860;-87
2022/11/24 10:58:15;;;;;;;55.08;24.30;;;;;;;5.05;100.00;99683.91;5492788;32;32558;-87
2022/11/24 11:01:27;;;;;;;49.97;23.45;;;;;;;5.11;100.00;99688.06;5500477;32;33682;-86
2022/11/24 11:04:33;;;;;;;54.78;24.00;;;;;;;5.39;100.00;99687.84;5502912;32;33881;-85
2022/11/24 11:07:36;;;;;;;46.67;22.70;;;;;;;5.38;100.00;99691.41;5504435;32;34109;-86
2022/11/24 11:10:40;;;;;;;47.30;21.92;;;;;;;5.50;100.00;99700.59;5531264;26;34521;-89
2022/11/24 11:13:52;;;;;;;52.92;23.52;;;;;;;5.50;100.00;99705.88;5542428;32;34008;-88
2022/11/24 11:17:02;;;;;;;44.83;21.90;;;;;;;5.55;100.00;99705.69;5536811;32;34151;-89
2022/11/24 11:20:25;;;;;;;46.05;21.17;;;;;;;5.61;100.00;99702.78;5535331;32;33988;-90
2022/11/24 11:27:19;;;;;;;40.45;21.42;;;;;;;5.61;100.00;99709.81;844010;29;20418;-88
2022/11/24 11:30:48;;;;;;;43.65;21.83;;;;;;;5.80;100.00;99715.22;5589497;26;31995;31
2022/11/24 11:34:18;;;;;;;42.97;21.35;;;;;;;5.95;100.00;99716.38;5677054;26;34629;-89
2022/11/24 11:37:32;;;;;;;43.10;21.05;;;;;;;6.03;100.00;99722.19;5567168;32;34261;-89
2022/11/24 11:40:35;;;;;;;40.53;19.67;;;;;;;6.33;100.00;99715.69;5665329;26;34837;-89
2022/11/24 11:43:40;;;;;;;45.45;22.50;;;;;;;6.76;100.00;99710.34;5563298;32;32453;-89
2022/11/24 12:02:15;;;;;;;36.40;19.05;;;;;;;6.09;100.00;99713.19;3976750;29;20406;-90
2022/11/24 12:05:49;;;;;;;34.72;18.40;;;;;;;6.09;100.00;99713.19;5555919;32;34206;-89
2022/11/24 12:09:40;;;;;;;36.45;18.77;;;;;;;6.48;100.00;99716.81;5602702;26;33793;-90
2022/11/24 12:16:44;;;;;;;32.05;16.77;;;;;;;6.30;100.00;99721.94;5594701;26;20085;-87
2022/11/24 12:20:25;;;;;;;35.30;17.95;;;;;;;6.43;100.00;99729.31;5561355;31;34106;-89
2022/11/24 12:24:05;;;;;;;32.92;17.45;;;;;;;6.27;100.00;99723.84;5562653;32;34226;-88
2022/11/24 12:27:46;;;;;;;33.40;17.58;;;;;;;6.21;100.00;99735.53;5562204;32;35130;-92
2022/11/24 12:31:02;;;;;;;32.35;16.77;;;;;;;6.06;100.00;99739.66;5564283;32;34185;-89
2022/11/24 12:34:30;;;;;;;30.48;15.93;;;;;;;5.93;100.00;99747.16;5559785;31;33753;-89
2022/11/24 12:38:06;;;;;;;42.47;17.00;;;;;;;5.88;100.00;99743.88;5541917;32;33721;-88
2022/11/24 12:41:22;;;;;;;33.50;16.87;;;;;;;5.76;100.00;99743.44;5556119;32;34557;-88
2022/11/24 12:45:12;;;;;;;30.80;16.35;;;;;;;5.61;100.00;99749.28;5553701;32;33005;-88
2022/11/24 12:48:24;;;;;;;30.20;15.88;;;;;;;5.61;100.00;99747.53;5569716;32;35593;-91
2022/11/24 12:51:31;;;;;;;31.10;17.25;;;;;;;5.58;100.00;99745.00;5557358;32;34492;-89
2022/11/24 12:54:39;;;;;;;29.23;16.02;;;;;;;5.50;100.00;99741.81;5558303;32;34618;-89
2022/11/24 12:57:52;;;;;;;32.60;16.97;;;;;;;5.71;100.00;99747.16;5553021;32;33985;-89
2022/11/24 13:01:04;;;;;;;29.08;15.40;;;;;;;5.54;100.00;99740.78;5546115;32;32298;-89
2022/11/24 13:04:41;;;;;;;30.77;15.95;;;;;;;5.65;100.00;99738.56;5565899;32;34117;-90
2022/11/24 13:07:46;;;;;;;34.92;15.63;;;;;;;5.56;100.00;99746.84;5557010;32;34947;-90
2022/11/24 13:10:49;;;;;;;30.20;16.60;;;;;;;5.65;100.00;99733.31;5563301;32;34025;-90
2022/11/24 13:14:00;;;;;;;30.75;16.35;;;;;;;5.73;100.00;99751.44;5555300;32;34576;-90
2022/11/24 13:17:20;;;;;;;29.27;15.80;;;;;;;5.94;100.00;99765.53;5551742;32;33933;-90
2022/11/24 13:20:39;;;;;;;28.98;15.63;;;;;;;5.88;100.00;99764.94;5559641;32;34258;-89
2022/11/24 13:23:41;;;;;;;29.10;15.57;;;;;;;5.88;100.00;99762.28;5550222;32;32699;-90
2022/11/24 13:26:47;;;;;;;28.52;13.82;;;;;;;5.86;100.00;99759.72;5565753;32;34630;-90
2022/11/24 13:29:51;;;;;;;25.27;14.18;;;;;;;5.99;100.00;99765.31;5584567;26;33686;-89
2022/11/24 13:33:30;;;;;;;30.33;14.63;;;;;;;6.04;100.00;99766.03;4949228;29;20099;-89
2022/11/24 13:36:50;;;;;;;28.77;14.40;;;;;;;6.10;100.00;99761.44;5569934;32;33781;-89
2022/11/24 13:39:55;;;;;;;30.08;14.87;;;;;;;6.01;100.00;99770.53;5559670;32;34160;-89
2022/11/24 13:43:00;;;;;;;30.77;16.15;;;;;;;6.04;100.00;99775.72;5564933;32;34646;-88
2022/11/24 13:46:03;;;;;;;30.20;15.48;;;;;;;6.06;100.00;99771.25;5567657;32;35277;-90
2022/11/24 13:49:13;;;;;;;27.65;14.87;;;;;;;5.97;100.00;99776.84;5544212;32;32968;-88
2022/11/24 13:52:59;;;;;;;29.52;15.73;;;;;;;5.93;100.00;99782.25;5549750;32;32330;-89
2022/11/24 13:56:01;;;;;;;28.17;15.25;;;;;;;6.10;100.00;99786.00;5550897;32;33687;-88
2022/11/24 13:59:28;;;;;;;31.02;14.70;;;;;;;6.06;100.00;99787.91;5544969;32;33268;-88
2022/11/24 14:02:33;;;;;;;30.33;14.57;;;;;;;6.05;100.00;99780.06;5560780;32;34201;-89
2022/11/24 14:05:38;;;;;;;27.62;14.50;;;;;;;6.07;100.00;99789.63;5556448;31;33512;-89
2022/11/24 14:08:45;;;;;;;28.45;15.38;;;;;;;5.94;100.00;99788.37;5554993;26;32830;-89
2022/11/24 14:12:04;;;;;;;28.80;15.05;;;;;;;6.03;100.00;99805.63;5545245;32;35149;-92
2022/11/24 14:15:25;;;;;;;24.37;14.35;;;;;;;5.94;100.00;99794.47;5536285;32;34612;-89
2022/11/24 14:18:30;;;;;;;31.15;15.85;;;;;;;5.99;100.00;99801.34;5545369;32;33617;-90
2022/11/24 14:21:36;;;;;;;27.98;15.40;;;;;;;5.94;100.00;99799.75;5544493;32;32250;-88
2022/11/24 14:24:43;;;;;;;29.67;14.87;;;;;;;5.88;100.00;99797.34;5553255;32;32192;-89
2022/11/24 14:27:46;;;;;;;27.90;15.45;;;;;;;5.98;100.00;99808.38;5557212;31;35067;-89
2022/11/24 14:30:50;;;;;;;30.40;15.18;;;;;;;5.93;100.00;99811.19;5529165;32;32388;-89
2022/11/24 14:34:10;;;;;;;27.70;14.98;;;;;;;5.84;100.00;99808.91;5541552;32;33985;-89
2022/11/24 14:37:12;;;;;;;29.95;15.25;;;;;;;5.77;100.00;99803.06;5543297;32;34624;-88
2022/11/24 14:41:00;;;;;;;31.45;15.82;;;;;;;5.80;100.00;99810.81;5528032;32;34282;-88
2022/11/24 14:44:18;;;;;;;28.20;15.10;;;;;;;5.82;100.00;99816.03;5545713;32;33414;-88
2022/11/24 14:47:36;;;;;;;29.75;16.08;;;;;;;5.65;100.00;99817.53;5559278;32;35069;-90
2022/11/24 14:50:39;;;;;;;30.40;16.45;;;;;;;5.62;100.00;99820.28;5544359;32;32750;-92
2022/11/24 14:53:45;;;;;;;29.98;15.82;;;;;;;5.62;100.00;99828.19;5536199;32;35319;-93
2022/11/24 14:57:05;;;;;;;31.62;15.80;;;;;;;5.60;100.00;99840.53;5542586;32;34415;-89
2022/11/24 15:00:10;;;;;;;29.45;15.80;;;;;;;5.55;100.00;99849.50;5554652;31;34057;-88
2022/11/24 15:03:17;;;;;;;32.72;16.75;;;;;;;5.51;100.00;99847.00;5542600;32;34004;-89
2022/11/24 15:06:20;;;;;;;32.40;16.50;;;;;;;5.53;100.00;99858.31;5543511;32;33936;-88
2022/11/24 15:09:48;;;;;;;33.75;17.70;;;;;;;5.47;100.00;99868.19;5531499;32;33615;-88
2022/11/24 15:12:57;;;;;;;32.42;16.75;;;;;;;5.43;100.00;99869.25;5532433;32;34823;-88
2022/11/24 15:16:05;;;;;;;32.72;15.98;;;;;;;5.45;100.00;99875.31;5531261;32;33398;-89
2022/11/24 15:19:15;;;;;;;33.45;17.48;;;;;;;5.46;100.00;99867.38;5531575;32;32378;-88
2022/11/24 15:22:36;;;;;;;38.08;18.20;;;;;;;5.43;100.00;99870.09;5541534;32;33967;-89
2022/11/24 15:25:39;;;;;;;31.37;16.77;;;;;;;5.39;100.00;99879.87;5549869;32;33543;-89
2022/11/24 15:28:42;;;;;;;38.53;17.15;;;;;;;5.37;100.00;99867.69;5549624;32;34026;-89
2022/11/24 15:31:44;;;;;;;33.10;16.85;;;;;;;5.33;100.00;99876.63;5535020;32;36060;-89
2022/11/24 15:34:54;;;;;;;32.58;16.67;;;;;;;5.36;100.00;99876.50;5537615;32;34396;-89
2022/11/24 15:37:56;;;;;;;31.90;17.05;;;;;;;5.31;100.00;99873.16;5534342;32;34642;-89
2022/11/24 15:41:00;;;;;;;34.92;17.95;;;;;;;5.26;100.00;99875.97;5529435;32;33819;-89
2022/11/24 15:44:03;;;;;;;32.15;17.42;;;;;;;5.20;100.00;99881.44;5541152;32;34188;-90
2022/11/24 15:47:07;;;;;;;30.37;16.67;;;;;;;5.25;100.00;99885.63;5531829;32;34677;-89
2022/11/24 15:50:10;;;;;;;29.65;17.33;;;;;;;5.11;100.00;99882.62;5538925;32;33074;-90
2022/11/24 15:53:39;;;;;;;35.97;17.25;;;;;;;5.11;100.00;99880.00;5543539;32;34200;-87
2022/11/24 15:56:43;;;;;;;33.35;17.23;;;;;;;5.05;100.00;99886.34;5531059;32;33957;-87
2022/11/24 15:59:46;;;;;;;32.65;17.10;;;;;;;5.04;100.00;99879.37;5530759;32;34209;-87
2022/11/24 16:02:49;;;;;;;30.40;16.08;;;;;;;5.03;100.00;99890.78;5529782;32;35131;-87
2022/11/24 16:05:54;;;;;;;32.33;16.75;;;;;;;4.96;100.00;99884.88;5530122;32;34147;-88
2022/11/24 16:08:57;;;;;;;33.20;17.55;;;;;;;4.98;100.00;99892.72;5529214;32;33901;-88
2022/11/24 16:12:02;;;;;;;34.38;17.48;;;;;;;4.91;100.00;99889.44;5538302;32;33784;-88
2022/11/24 16:15:08;;;;;;;33.97;17.35;;;;;;;4.84;100.00;99895.81;5550165;32;33784;-88
2022/11/24 16:18:12;;;;;;;34.47;17.40;;;;;;;4.78;100.00;99899.50;5549802;32;34874;-88
2022/11/24 16:21:15;;;;;;;34.85;17.08;;;;;;;4.76;100.00;99898.69;5558824;32;32609;-87
2022/11/24 16:24:18;;;;;;;33.35;17.55;;;;;;;4.69;100.00;99899.81;5563578;31;34280;-90
2022/11/24 16:27:20;;;;;;;35.92;17.95;;;;;;;4.67;100.00;99904.28;5563035;31;34945;-88
2022/11/24 16:30:24;;;;;;;41.47;17.83;;;;;;;4.65;100.00;99901.69;5551744;32;34808;-90
2022/11/24 16:33:29;;;;;;;34.15;17.48;;;;;;;4.63;100.00;99903.47;5543975;32;33042;-88
